Time;durP1;ratioP1;P1;durP2;ratioP2;P2;SDS_P1;SDS_P2;PMS_P1;PMS_P2;Temp;Humidity;BMP_temperature;BMP_pressure;BME280_temperature;BME280_humidity;BME280_pressure;Samples;Min_cycle;Max_cycle;Signal;HPM_P1;HPM_P2
2023/09/18 00:02:52;;;;;;;11.37;10.27;;;;;;;14.86;100.00;97799.66;6228666;28;20647;-92
2023/09/18 00:05:54;;;;;;;10.27;9.20;;;;;;;13.31;100.00;97565.66;6241774;28;20233;-91
2023/09/18 00:08:57;;;;;;;10.07;9.17;;;;;;;14.22;100.00;97707.00;6248705;28;20235;-90
2023/09/18 00:11:59;;;;;;;11.33;9.83;;;;;;;12.66;100.00;97471.47;6226844;28;21669;-90
2023/09/18 00:15:01;;;;;;;9.37;8.50;;;;;;;13.59;100.00;97625.94;6226824;28;20604;-91
2023/09/18 00:18:03;;;;;;;10.37;9.47;;;;;;;14.12;100.00;97694.41;6207618;28;20223;-91
2023/09/18 00:21:06;;;;;;;9.27;8.37;;;;;;;14.00;100.00;97658.22;6211184;28;20578;-92
2023/09/18 00:24:08;;;;;;;9.67;8.27;;;;;;;13.91;100.00;97656.03;6251215;28;20215;-91
2023/09/18 00:27:13;;;;;;;11.80;9.70;;;;;;;13.62;100.00;97606.69;6227747;28;20215;-91
2023/09/18 00:30:15;;;;;;;9.40;8.43;;;;;;;13.20;100.00;97551.41;6243517;28;20352;-90
2023/09/18 00:33:20;;;;;;;10.33;9.40;;;;;;;14.03;100.00;97666.50;6225995;28;20226;-91
2023/09/18 00:36:23;;;;;;;11.67;8.53;;;;;;;14.18;100.00;97708.59;6215730;28;20258;-92
2023/09/18 00:39:28;;;;;;;9.30;8.40;;;;;;;12.62;100.00;97479.22;6240764;28;20602;-91
2023/09/18 00:42:31;;;;;;;9.50;8.50;;;;;;;13.22;100.00;97553.84;6248946;28;20709;-91
2023/09/18 00:45:34;;;;;;;10.13;9.13;;;;;;;13.76;100.00;97647.16;6209587;28;20606;-91
2023/09/18 00:48:36;;;;;;;9.87;8.87;;;;;;;13.19;100.00;97555.13;6230971;28;20766;-91
2023/09/18 00:51:38;;;;;;;9.57;8.67;;;;;;;13.68;100.00;97638.56;6222017;28;20267;-91
2023/09/18 00:54:41;;;;;;;9.77;8.77;;;;;;;14.34;100.00;97733.59;6218492;28;20607;-91
2023/09/18 00:57:45;;;;;;;8.60;7.80;;;;;;;13.70;100.00;97656.25;6238369;28;20235;-91
2023/09/18 01:00:50;;;;;;;8.77;7.87;;;;;;;12.80;100.00;97487.81;6239584;28;20231;-90
2023/09/18 01:03:53;;;;;;;9.00;8.20;;;;;;;14.04;100.00;97686.91;6226993;28;20232;-90
2023/09/18 01:06:57;;;;;;;9.03;8.23;;;;;;;13.20;100.00;97575.47;6239443;28;20317;-90
2023/09/18 01:10:00;;;;;;;10.47;8.20;;;;;;;13.77;100.00;97649.56;6211745;28;20235;-90
2023/09/18 01:13:13;;;;;;;9.10;8.30;;;;;;;13.53;100.00;97616.28;6227351;28;20250;-90
2023/09/18 01:16:31;;;;;;;9.53;8.57;;;;;;;13.76;100.00;97669.38;6213843;28;20231;-91
2023/09/18 01:19:47;;;;;;;10.93;9.43;;;;;;;14.35;100.00;97727.97;6226212;28;20602;-91
2023/09/18 01:22:49;;;;;;;12.03;10.93;;;;;;;12.78;100.00;97496.13;6227803;28;20582;-91
2023/09/18 01:25:51;;;;;;;10.40;9.40;;;;;;;14.36;100.00;97723.41;6213137;28;20254;-91
2023/09/18 01:28:54;;;;;;;9.47;8.47;;;;;;;14.36;100.00;97720.72;6213785;28;20235;-92
2023/09/18 01:31:57;;;;;;;9.63;8.73;;;;;;;12.76;100.00;97484.06;6214185;28;20234;-91
2023/09/18 01:35:03;;;;;;;13.43;8.40;;;;;;;14.36;100.00;97726.88;6228699;28;20735;-92
2023/09/18 01:38:06;;;;;;;9.73;8.70;;;;;;;12.95;100.00;97545.91;6227907;28;20251;-91
2023/09/18 01:41:09;;;;;;;9.93;8.93;;;;;;;13.02;100.00;97541.16;6229463;28;20231;-88
2023/09/18 01:44:11;;;;;;;9.43;8.53;;;;;;;13.42;100.00;97572.63;6222890;28;20623;-89
2023/09/18 01:47:19;;;;;;;9.60;8.70;;;;;;;14.20;100.00;97701.13;6227055;28;20235;-88
2023/09/18 01:50:22;;;;;;;9.00;8.10;;;;;;;12.19;100.00;97384.16;6227408;28;20237;-88
2023/09/18 01:53:26;;;;;;;9.40;8.60;;;;;;;13.41;100.00;97579.88;6227359;28;20232;-89
2023/09/18 01:56:28;;;;;;;10.07;8.77;;;;;;;12.62;100.00;97459.69;6207095;28;20236;-89
2023/09/18 01:59:30;;;;;;;9.53;8.70;;;;;;;13.39;100.00;97605.25;6213083;28;21014;-89
2023/09/18 02:02:34;;;;;;;9.13;8.23;;;;;;;13.35;100.00;97598.84;6229425;28;20259;-89
2023/09/18 02:05:57;;;;;;;9.50;8.60;;;;;;;13.02;100.00;97504.50;6210218;28;20220;-89
2023/09/18 02:09:00;;;;;;;10.90;9.10;;;;;;;13.06;100.00;97534.22;6259094;28;20226;-89
2023/09/18 02:12:04;;;;;;;8.73;7.97;;;;;;;12.80;100.00;97485.97;6201890;28;20239;-89
2023/09/18 02:15:07;;;;;;;8.50;7.63;;;;;;;13.38;100.00;97584.94;6228102;28;20748;-88
2023/09/18 02:18:09;;;;;;;10.47;8.47;;;;;;;12.30;100.00;97433.88;6245978;28;20466;-89
2023/09/18 02:21:18;;;;;;;9.17;8.37;;;;;;;14.19;100.00;97700.31;6224629;28;20210;-88
2023/09/18 02:24:21;;;;;;;10.47;9.47;;;;;;;12.67;100.00;97432.19;6221482;28;21735;-90
2023/09/18 02:27:23;;;;;;;9.90;8.80;;;;;;;12.51;100.00;97447.34;6223935;28;20672;-88
2023/09/18 02:30:25;;;;;;;9.10;8.20;;;;;;;12.80;100.00;97443.19;6223515;28;20227;-88
2023/09/18 02:33:27;;;;;;;12.23;9.43;;;;;;;13.86;100.00;97620.41;6205629;28;20311;-89
2023/09/18 02:36:30;;;;;;;8.80;8.00;;;;;;;13.60;100.00;97585.56;6255389;28;20282;-92
2023/09/18 02:39:32;;;;;;;9.47;8.40;;;;;;;13.11;100.00;97502.16;6270512;28;20199;-92
2023/09/18 02:42:34;;;;;;;9.40;8.47;;;;;;;13.37;100.00;97562.72;6252588;28;20216;-93
2023/09/18 02:45:37;;;;;;;9.43;8.53;;;;;;;13.74;100.00;97593.06;6258138;28;20287;-92
2023/09/18 02:48:39;;;;;;;10.37;9.37;;;;;;;12.84;100.00;97480.91;6279062;28;20207;-91
2023/09/18 02:51:41;;;;;;;9.93;8.90;;;;;;;13.72;100.00;97597.88;6234702;28;20267;-91
2023/09/18 02:54:43;;;;;;;9.73;8.80;;;;;;;13.53;100.00;97584.16;6252806;28;20231;-91
2023/09/18 02:57:45;;;;;;;10.27;9.37;;;;;;;12.54;100.00;97398.72;6237441;28;20708;-89
2023/09/18 03:00:50;;;;;;;9.77;8.87;;;;;;;13.57;100.00;97574.56;6201870;28;20720;-91
2023/09/18 03:03:52;;;;;;;9.20;8.30;;;;;;;12.82;100.00;97462.47;6215239;28;20239;-91
2023/09/18 03:06:54;;;;;;;9.87;8.90;;;;;;;12.28;100.00;97365.75;6218481;28;20368;-92
2023/09/18 03:09:56;;;;;;;9.77;8.87;;;;;;;14.13;100.00;97637.06;6208212;28;20223;-89
2023/09/18 03:13:00;;;;;;;9.60;8.73;;;;;;;13.37;100.00;97516.44;6235399;28;20314;-89
2023/09/18 03:16:03;;;;;;;8.73;8.00;;;;;;;13.46;100.00;97511.38;6226260;28;20243;-89
2023/09/18 03:19:05;;;;;;;8.53;7.77;;;;;;;12.96;100.00;97451.28;6225199;28;20304;-88
2023/09/18 03:22:08;;;;;;;10.80;8.77;;;;;;;13.10;100.00;97479.13;6223184;28;20230;-89
2023/09/18 03:25:10;;;;;;;9.40;8.50;;;;;;;12.51;100.00;97368.00;6223395;28;20700;-89
2023/09/18 03:28:12;;;;;;;9.50;8.60;;;;;;;13.25;100.00;97499.78;6207782;28;20226;-89
2023/09/18 03:31:15;;;;;;;9.13;8.33;;;;;;;13.75;100.00;97565.25;6256055;28;20276;-89
2023/09/18 03:34:17;;;;;;;8.93;8.13;;;;;;;12.93;100.00;97460.63;6219450;28;20228;-88
2023/09/18 03:37:20;;;;;;;9.80;8.90;;;;;;;13.56;100.00;97548.88;6191644;28;20235;-89
2023/09/18 03:40:23;;;;;;;11.10;9.70;;;;;;;14.20;100.00;97621.56;6225221;28;20291;-88
2023/09/18 03:43:25;;;;;;;10.13;9.07;;;;;;;12.97;100.00;97421.59;6218613;28;20238;-89
2023/09/18 03:46:28;;;;;;;10.07;9.17;;;;;;;12.99;100.00;97419.47;6243227;28;20512;-89
2023/09/18 03:49:31;;;;;;;11.50;10.27;;;;;;;12.67;100.00;97373.41;6225990;28;20740;-89
2023/09/18 03:52:33;;;;;;;9.90;8.90;;;;;;;14.25;100.00;97596.63;6209093;28;20258;-89
2023/09/18 03:55:35;;;;;;;9.87;8.97;;;;;;;14.34;100.00;97610.31;6206438;28;20237;-89
2023/09/18 03:58:37;;;;;;;10.30;9.27;;;;;;;12.75;100.00;97368.31;6223064;28;20235;-89
2023/09/18 04:01:40;;;;;;;10.13;9.07;;;;;;;13.54;100.00;97484.88;6238650;28;20609;-90
2023/09/18 04:04:42;;;;;;;10.43;9.43;;;;;;;14.34;100.00;97600.41;6227098;28;20236;-90
2023/09/18 04:07:46;;;;;;;11.30;10.03;;;;;;;12.88;100.00;97394.56;6227805;28;20234;-89
2023/09/18 04:10:48;;;;;;;9.90;8.97;;;;;;;13.25;100.00;97455.16;6223206;28;20598;-90
2023/09/18 04:13:51;;;;;;;10.57;9.47;;;;;;;13.71;100.00;97518.66;6236521;28;20727;-90
2023/09/18 04:16:53;;;;;;;10.50;9.50;;;;;;;12.37;100.00;97310.78;6225954;28;20232;-90
2023/09/18 04:19:55;;;;;;;10.27;9.27;;;;;;;13.77;100.00;97498.84;6248356;28;20332;-89
2023/09/18 04:23:21;;;;;;;10.27;9.27;;;;;;;14.37;100.00;97589.13;6243005;28;20242;-90
2023/09/18 04:26:29;;;;;;;10.13;9.13;;;;;;;13.80;100.00;97515.19;6240702;28;20224;-90
2023/09/18 04:29:32;;;;;;;11.23;8.73;;;;;;;13.21;100.00;97423.81;6222616;28;20275;-89
2023/09/18 04:32:37;;;;;;;9.63;8.37;;;;;;;13.46;100.00;97481.94;6199572;28;20725;-90
2023/09/18 04:35:41;;;;;;;9.20;8.30;;;;;;;13.32;100.00;97468.25;6209127;28;20729;-90
2023/09/18 04:38:43;;;;;;;9.27;8.37;;;;;;;13.45;100.00;97454.38;6225380;28;20322;-90
2023/09/18 04:41:45;;;;;;;9.50;8.60;;;;;;;13.48;100.00;97469.88;6210946;28;20232;-90
2023/09/18 04:44:48;;;;;;;9.37;8.30;;;;;;;14.24;100.00;97570.13;6212472;28;20218;-90
2023/09/18 04:47:50;;;;;;;9.83;8.83;;;;;;;13.20;100.00;97420.34;6216087;28;20322;-90
2023/09/18 04:50:52;;;;;;;9.83;8.83;;;;;;;14.24;100.00;97586.19;6231015;28;20230;-90
2023/09/18 04:53:56;;;;;;;10.07;8.97;;;;;;;13.93;100.00;97514.63;6226194;28;20243;-89
2023/09/18 04:56:58;;;;;;;9.27;7.97;;;;;;;12.87;100.00;97360.09;6225522;28;20239;-90
2023/09/18 05:00:00;;;;;;;9.63;8.73;;;;;;;13.46;100.00;97439.13;6225717;28;20226;-89
2023/09/18 05:03:18;;;;;;;10.40;9.30;;;;;;;13.02;100.00;97372.69;6226925;28;20216;-90
2023/09/18 05:06:21;;;;;;;10.10;9.00;;;;;;;13.54;100.00;97466.16;6229022;28;20578;-90
2023/09/18 05:09:24;;;;;;;10.27;9.37;;;;;;;12.39;100.00;97280.06;6228104;28;20223;-90
2023/09/18 05:12:27;;;;;;;10.93;9.23;;;;;;;13.01;100.00;97400.50;6234454;28;20748;-91
2023/09/18 05:15:29;;;;;;;10.30;9.30;;;;;;;14.31;100.00;97570.66;6210926;28;20231;-92
2023/09/18 05:18:32;;;;;;;9.67;8.77;;;;;;;13.55;100.00;97461.63;6227571;28;20741;-91
2023/09/18 05:21:34;;;;;;;10.87;8.73;;;;;;;12.58;100.00;97327.66;6227580;28;20226;-91
2023/09/18 05:24:38;;;;;;;9.17;8.37;;;;;;;13.02;100.00;97383.38;6234296;28;20303;-91
2023/09/18 05:27:43;;;;;;;9.13;8.23;;;;;;;13.46;100.00;97434.56;6227606;28;20994;-91
2023/09/18 05:30:46;;;;;;;9.60;8.70;;;;;;;13.26;100.00;97405.13;6223747;28;20239;-91
2023/09/18 05:33:48;;;;;;;9.30;8.50;;;;;;;13.56;100.00;97445.28;6242162;28;20329;-91
2023/09/18 05:36:51;;;;;;;9.60;8.70;;;;;;;12.97;100.00;97359.31;6223931;28;20606;-91
2023/09/18 05:39:53;;;;;;;11.10;10.00;;;;;;;14.37;100.00;97550.81;6243539;28;20235;-91
2023/09/18 05:42:56;;;;;;;10.03;9.13;;;;;;;14.08;100.00;97507.69;6226569;28;20322;-92
2023/09/18 05:45:59;;;;;;;10.87;9.87;;;;;;;14.37;100.00;97550.81;6207686;28;20251;-91
2023/09/18 05:49:04;;;;;;;9.53;8.63;;;;;;;12.94;100.00;97309.03;6243084;28;20246;-91
2023/09/18 05:52:06;;;;;;;10.30;9.40;;;;;;;12.79;100.00;97272.38;6222823;28;20595;-90
2023/09/18 05:55:09;;;;;;;10.83;9.83;;;;;;;12.97;100.00;97335.25;6213935;28;20637;-92
2023/09/18 05:58:11;;;;;;;9.63;8.70;;;;;;;13.67;100.00;97420.13;6229234;28;20235;-91
2023/09/18 06:01:13;;;;;;;10.53;9.43;;;;;;;13.67;100.00;97416.66;6223127;28;20241;-91
2023/09/18 06:04:16;;;;;;;9.53;8.63;;;;;;;14.40;100.00;97521.59;6245007;28;20719;-91
2023/09/18 06:07:20;;;;;;;9.90;9.00;;;;;;;13.53;100.00;97381.56;6224571;28;20231;-92
2023/09/18 06:10:25;;;;;;;10.67;9.67;;;;;;;12.78;100.00;97260.88;6239179;28;20290;-92
2023/09/18 06:13:27;;;;;;;11.87;10.67;;;;;;;13.24;100.00;97311.75;6222871;28;20227;-93
2023/09/18 06:16:31;;;;;;;11.37;10.37;;;;;;;12.96;100.00;97294.34;6225753;28;20238;-93
2023/09/18 06:19:33;;;;;;;9.87;8.93;;;;;;;14.52;100.00;97515.97;6227840;28;20815;-92
2023/09/18 06:22:40;;;;;;;11.00;10.00;;;;;;;14.53;100.00;97509.56;6241745;28;20723;-93
2023/09/18 06:25:42;;;;;;;10.37;9.37;;;;;;;13.14;100.00;97298.34;6238745;28;20242;-92
2023/09/18 06:28:44;;;;;;;10.90;9.90;;;;;;;13.30;100.00;97331.25;6226188;28;20239;-92
2023/09/18 06:31:47;;;;;;;10.93;9.83;;;;;;;13.21;100.00;97306.91;6230461;28;20236;-92
2023/09/18 06:34:49;;;;;;;12.03;10.87;;;;;;;14.14;100.00;97426.25;6226240;28;20705;-93
2023/09/18 06:37:51;;;;;;;11.00;9.90;;;;;;;13.45;100.00;97330.47;6222841;28;20242;-91
2023/09/18 06:40:55;;;;;;;11.97;10.03;;;;;;;14.01;100.00;97392.78;6229586;28;20314;-93
2023/09/18 06:43:57;;;;;;;10.13;9.23;;;;;;;14.62;100.00;97450.81;6221829;28;20231;-92
2023/09/18 06:46:59;;;;;;;11.20;10.10;;;;;;;14.40;100.00;97401.00;6212651;28;20227;-91
2023/09/18 06:50:02;;;;;;;10.77;9.67;;;;;;;15.06;100.00;97487.66;6228974;28;20782;-92
2023/09/18 06:53:06;;;;;;;12.03;10.83;;;;;;;13.42;100.00;97220.22;6205256;28;20262;-91
2023/09/18 06:56:12;;;;;;;10.63;9.57;;;;;;;14.70;100.00;97399.31;6208297;28;20314;-91
2023/09/18 06:59:14;;;;;;;10.93;9.93;;;;;;;14.44;100.00;97358.38;6216614;28;20228;-92
2023/09/18 07:02:17;;;;;;;11.23;10.20;;;;;;;14.49;100.00;97345.00;6211234;28;20247;-92
2023/09/18 07:05:19;;;;;;;11.33;10.23;;;;;;;14.75;100.00;97395.81;6231911;28;20219;-91
2023/09/18 07:08:23;;;;;;;11.60;10.60;;;;;;;14.87;100.00;97380.16;6221605;28;20602;-92
2023/09/18 07:11:25;;;;;;;12.23;11.03;;;;;;;15.38;100.00;97418.25;6230191;28;20227;-93
2023/09/18 07:14:27;;;;;;;12.70;11.50;;;;;;;16.11;100.00;97492.66;6207818;28;20255;-93
2023/09/18 07:17:30;;;;;;;13.50;12.20;;;;;;;14.23;100.00;97164.72;6241683;28;20323;-91
2023/09/18 07:20:32;;;;;;;13.23;11.93;;;;;;;15.27;100.00;97279.03;6227283;28;20230;-93
2023/09/18 07:23:37;;;;;;;11.27;10.23;;;;;;;15.68;100.00;97338.56;6210403;28;20636;-93
2023/09/18 07:26:39;;;;;;;13.20;10.53;;;;;;;16.08;100.00;97393.78;6236062;28;20238;-92
2023/09/18 07:29:42;;;;;;;11.70;10.30;;;;;;;16.20;100.00;97372.69;6222446;28;20226;-90
2023/09/18 07:32:44;;;;;;;10.90;9.37;;;;;;;16.48;100.00;97335.28;6201731;28;20285;-90
2023/09/18 07:35:47;;;;;;;11.43;9.77;;;;;;;17.62;100.00;97463.44;6229861;28;20232;-94
2023/09/18 07:38:50;;;;;;;8.83;7.93;;;;;;;17.06;100.00;97310.84;6258096;28;20258;-92
2023/09/18 07:41:53;;;;;;;8.83;7.57;;;;;;;18.02;100.00;97429.69;6261651;28;20250;-92
2023/09/18 07:44:55;;;;;;;8.57;7.70;;;;;;;17.51;100.00;97333.53;6260152;28;20242;-94
2023/09/18 07:48:00;;;;;;;15.60;7.10;;;;;;;18.31;100.00;97426.75;6246376;28;20218;-91
2023/09/18 07:51:02;;;;;;;10.53;7.27;;;;;;;18.22;100.00;97398.88;6260128;28;20239;-90
2023/09/18 07:54:07;;;;;;;11.97;7.40;;;;;;;18.38;100.00;97383.22;6273670;28;20200;-92
2023/09/18 07:57:09;;;;;;;9.33;7.03;;;;;;;19.32;100.00;97470.94;6232980;28;20215;-92
2023/09/18 08:00:12;;;;;;;7.27;6.50;;;;;;;19.45;100.00;97482.81;6248226;28;20211;-93
2023/09/18 08:03:14;;;;;;;7.53;6.53;;;;;;;18.25;100.00;97286.94;6215282;28;20732;-91
2023/09/18 08:06:19;;;;;;;7.40;5.93;;;;;;;19.71;99.70;97469.56;6227005;28;20241;-91
2023/09/18 08:09:21;;;;;;;6.43;5.83;;;;;;;18.63;100.00;97294.78;6243889;28;20234;-90
2023/09/18 08:12:24;;;;;;;8.70;6.73;;;;;;;19.40;100.00;97399.16;6221190;28;20218;-92
2023/09/18 08:15:27;;;;;;;7.77;6.93;;;;;;;19.96;100.00;97470.88;6230835;28;20597;-91
2023/09/18 08:18:30;;;;;;;8.13;6.77;;;;;;;18.92;100.00;97333.03;6216695;28;20589;-92
2023/09/18 08:21:33;;;;;;;6.83;6.20;;;;;;;19.69;100.00;97402.28;6253280;28;20999;-92
2023/09/18 08:24:35;;;;;;;7.70;6.30;;;;;;;19.19;99.72;97307.03;6202073;28;20235;-92
2023/09/18 08:27:43;;;;;;;6.33;5.23;;;;;;;19.87;98.12;97392.38;6232218;28;20701;-92
2023/09/18 08:30:47;;;;;;;6.23;5.63;;;;;;;20.24;96.99;97407.38;6210233;28;20626;-92
2023/09/18 08:33:49;;;;;;;6.70;6.10;;;;;;;19.96;95.17;97360.00;6220796;28;20645;-91
2023/09/18 08:36:52;;;;;;;5.97;5.37;;;;;;;20.54;96.68;97432.03;6246985;28;20231;-91
2023/09/18 08:39:54;;;;;;;6.73;5.83;;;;;;;20.10;95.48;97350.69;6220882;28;20251;-93
2023/09/18 08:43:03;;;;;;;9.53;5.97;;;;;;;19.85;92.24;97286.47;6224937;28;20300;-90
2023/09/18 08:46:06;;;;;;;9.83;5.57;;;;;;;20.99;92.66;97473.31;6247215;28;20240;-91
2023/09/18 08:49:11;;;;;;;6.80;4.80;;;;;;;19.67;89.86;97277.50;6210790;28;20254;-91
2023/09/18 08:52:15;;;;;;;5.63;4.87;;;;;;;19.98;87.88;97290.97;6199102;28;20350;-92
2023/09/18 08:55:18;;;;;;;6.03;4.80;;;;;;;21.32;84.96;97460.16;6208970;28;20238;-93
2023/09/18 08:58:22;;;;;;;6.10;4.37;;;;;;;21.50;83.34;97455.56;6243232;28;20240;-92
2023/09/18 09:01:24;;;;;;;4.53;4.13;;;;;;;21.63;82.24;97445.69;6202883;28;20226;-91
2023/09/18 09:04:26;;;;;;;5.80;4.20;;;;;;;21.78;79.85;97439.00;6212290;28;20231;-91
2023/09/18 09:07:31;;;;;;;7.53;4.77;;;;;;;21.78;82.17;97441.69;6213057;28;20316;-92
2023/09/18 09:10:33;;;;;;;5.63;4.57;;;;;;;20.99;81.86;97310.81;6227599;28;20235;-92
2023/09/18 09:13:35;;;;;;;6.57;4.37;;;;;;;21.96;80.81;97439.75;6208838;28;20236;-92
2023/09/18 09:16:51;;;;;;;6.37;4.97;;;;;;;20.71;80.43;97228.31;6239828;28;20319;-93
2023/09/18 09:20:08;;;;;;;7.17;4.83;;;;;;;21.61;76.80;97324.00;6232850;28;20232;-93
2023/09/18 09:23:11;;;;;;;7.70;3.97;;;;;;;20.95;76.00;97208.88;6231152;28;20231;-93
2023/09/18 09:26:15;;;;;;;5.82;3.83;;;;;;;21.76;73.21;97268.47;6226651;28;20717;-91
2023/09/18 09:29:21;;;;;;;7.50;4.10;;;;;;;21.49;73.57;97201.91;6256554;28;20564;-92
2023/09/18 09:32:23;;;;;;;8.57;4.07;;;;;;;21.69;74.64;97270.91;6210914;28;20227;-94
2023/09/18 09:35:27;;;;;;;8.20;4.30;;;;;;;22.27;73.22;97325.59;6258195;28;20354;-92
2023/09/18 09:38:31;;;;;;;7.25;4.28;;;;;;;21.88;72.63;97241.47;6235501;28;20278;-93
2023/09/18 09:41:35;;;;;;;7.70;4.50;;;;;;;23.22;72.72;97417.41;6215831;28;20607;-93
2023/09/18 09:44:37;;;;;;;7.85;3.80;;;;;;;22.86;68.98;97341.88;6220770;28;20591;-92
2023/09/18 09:47:40;;;;;;;8.85;3.97;;;;;;;22.11;72.50;97208.66;6229091;28;20579;-91
2023/09/18 09:50:47;;;;;;;9.88;4.10;;;;;;;21.65;71.95;97156.09;6227840;28;20627;-92
2023/09/18 09:53:51;;;;;;;7.63;3.95;;;;;;;23.65;65.90;97389.13;6213228;28;20653;-92
2023/09/18 09:56:53;;;;;;;4.85;4.25;;;;;;;22.57;64.93;97196.88;6210929;28;20580;-93
2023/09/18 10:00:25;;;;;;;4.90;3.75;;;;;;;23.19;68.18;97309.34;6240261;28;20231;-92
2023/09/18 10:03:32;;;;;;;9.43;3.97;;;;;;;22.90;69.68;97242.31;6240111;28;20301;-92
2023/09/18 10:06:37;;;;;;;5.57;3.50;;;;;;;23.92;68.39;97390.44;6213778;28;20290;-92
2023/09/18 10:09:41;;;;;;;5.65;3.95;;;;;;;22.79;66.91;97220.16;6243049;28;20599;-92
2023/09/18 10:12:45;;;;;;;4.68;3.80;;;;;;;23.01;62.62;97223.69;6229206;28;20357;-92
2023/09/18 10:15:51;;;;;;;4.47;3.92;;;;;;;23.38;63.16;97263.44;6209435;28;20270;-93
2023/09/18 10:19:07;;;;;;;7.53;3.80;;;;;;;24.32;62.59;97374.28;6226235;28;20227;-92
2023/09/18 10:22:22;;;;;;;5.18;3.50;;;;;;;23.80;63.34;97298.72;6227576;28;20709;-93
2023/09/18 10:25:31;;;;;;;5.90;3.80;;;;;;;24.39;63.20;97377.28;6221324;28;20232;-92
2023/09/18 10:28:34;;;;;;;7.63;3.88;;;;;;;24.01;58.78;97265.97;6242320;28;20243;-93
2023/09/18 10:31:40;;;;;;;5.00;3.70;;;;;;;24.58;58.12;97324.16;6235779;28;20312;-91
2023/09/18 10:34:44;;;;;;;5.80;3.47;;;;;;;23.16;58.70;97133.41;6201409;28;20224;-92
2023/09/18 10:37:53;;;;;;;7.10;4.00;;;;;;;24.51;59.69;97313.84;6221576;28;20752;-92
2023/09/18 10:40:58;;;;;;;6.38;3.78;;;;;;;24.76;61.41;97322.78;6204729;28;20256;-93
2023/09/18 10:44:04;;;;;;;6.38;3.55;;;;;;;24.08;55.80;97183.75;6211437;28;20223;-92
2023/09/18 10:47:08;;;;;;;4.00;3.70;;;;;;;24.44;58.78;97280.97;6197198;28;20769;-93
2023/09/18 10:50:11;;;;;;;5.00;3.58;;;;;;;24.05;58.18;97242.41;6217388;28;20724;-94
2023/09/18 10:53:14;;;;;;;5.07;4.00;;;;;;;23.54;61.91;97206.50;6243317;28;20232;-92
2023/09/18 10:56:17;;;;;;;4.85;3.60;;;;;;;23.47;59.07;97172.84;6213689;28;20231;-91
2023/09/18 10:59:20;;;;;;;4.47;3.88;;;;;;;23.90;60.87;97273.00;6249111;28;20239;-93
2023/09/18 11:02:28;;;;;;;5.68;4.28;;;;;;;23.27;58.75;97139.19;6209494;28;20238;-91
2023/09/18 11:05:32;;;;;;;4.95;3.63;;;;;;;23.72;59.01;97218.00;6223638;28;20358;-91
2023/09/18 11:08:46;;;;;;;7.72;3.40;;;;;;;23.77;58.96;97209.63;6239572;28;20224;-91
2023/09/18 11:12:02;;;;;;;4.65;3.55;;;;;;;24.31;59.33;97277.44;6217276;28;20695;-91
2023/09/18 11:15:05;;;;;;;6.60;3.58;;;;;;;23.59;59.97;97181.00;6219652;28;20228;-92
2023/09/18 11:18:08;;;;;;;6.47;3.67;;;;;;;24.31;56.10;97252.13;6232677;28;20717;-91
2023/09/18 11:21:12;;;;;;;6.72;3.65;;;;;;;24.86;58.26;97313.34;6198011;28;20200;-93
2023/09/18 11:24:20;;;;;;;6.85;3.25;;;;;;;24.18;57.90;97197.69;6210111;28;20222;-91
2023/09/18 11:27:25;;;;;;;4.70;3.63;;;;;;;24.24;57.81;97201.00;6217318;28;20226;-91
2023/09/18 11:30:28;;;;;;;6.07;3.13;;;;;;;24.40;56.35;97231.84;6231886;28;20242;-91
2023/09/18 11:33:44;;;;;;;8.70;3.63;;;;;;;24.49;57.23;97217.31;6233188;28;20696;-89
2023/09/18 11:36:47;;;;;;;7.47;3.88;;;;;;;23.89;57.71;97106.25;6212911;28;20227;-90
2023/09/18 11:39:49;;;;;;;6.40;3.33;;;;;;;24.74;53.49;97197.03;6236011;28;20235;-91
2023/09/18 11:43:26;;;;;;;9.68;3.63;;;;;;;25.16;51.85;97246.50;6205637;28;20227;-92
2023/09/18 11:46:30;;;;;;;4.07;3.00;;;;;;;24.99;55.07;97229.66;6107052;28;20744;-91
2023/09/18 11:49:33;;;;;;;6.15;3.40;;;;;;;25.23;51.50;97199.59;6125901;28;20755;-91
2023/09/18 11:52:35;;;;;;;7.53;3.75;;;;;;;24.69;52.70;97132.69;6102537;29;20804;-91
2023/09/18 11:55:38;;;;;;;6.45;3.03;;;;;;;25.68;52.06;97285.69;6154532;28;20644;-91
2023/09/18 11:58:47;;;;;;;6.65;3.00;;;;;;;24.42;52.37;97128.81;6127563;28;20677;-91
2023/09/18 12:01:53;;;;;;;4.60;3.28;;;;;;;24.50;52.82;97124.38;6166680;28;20234;-90
2023/09/18 12:04:56;;;;;;;3.85;3.47;;;;;;;24.42;54.84;97117.13;6148002;28;20585;-91
2023/09/18 12:07:58;;;;;;;5.70;3.00;;;;;;;25.56;53.70;97272.91;6108021;28;20748;-91
2023/09/18 12:11:08;;;;;;;5.18;3.25;;;;;;;24.71;51.63;97126.91;6139123;28;20244;-91
2023/09/18 12:14:10;;;;;;;5.15;3.45;;;;;;;25.62;52.32;97255.16;6143703;28;21261;-92
2023/09/18 12:17:16;;;;;;;5.38;3.47;;;;;;;24.75;51.11;97124.28;6125359;28;20724;-91
2023/09/18 12:20:19;;;;;;;4.25;3.28;;;;;;;25.43;51.18;97212.19;6154156;28;20817;-92
2023/09/18 12:23:24;;;;;;;5.95;3.45;;;;;;;25.79;51.81;97245.06;6221542;28;20365;-93
2023/09/18 12:26:26;;;;;;;4.00;3.40;;;;;;;25.12;50.69;97133.88;6210187;28;20591;-93
2023/09/18 12:29:32;;;;;;;5.13;3.10;;;;;;;25.23;50.12;97142.31;6231172;28;20238;-92
2023/09/18 12:32:38;;;;;;;4.57;3.22;;;;;;;23.59;52.40;96937.06;6227983;28;20235;-92
2023/09/18 12:35:42;;;;;;;3.45;3.15;;;;;;;25.65;51.48;97240.00;6237543;28;20240;-93
2023/09/18 12:38:57;;;;;;;3.63;3.08;;;;;;;23.41;53.85;96901.22;6225760;28;20242;-93
2023/09/18 12:42:01;;;;;;;4.13;2.97;;;;;;;24.22;54.22;97060.91;6244892;28;20227;-93
2023/09/18 12:45:06;;;;;;;3.70;3.38;;;;;;;22.97;54.46;96837.81;6248799;28;20238;-92
2023/09/18 12:48:10;;;;;;;6.35;4.25;;;;;;;24.59;52.07;97056.94;6215745;28;20289;-92
2023/09/18 12:51:22;;;;;;;7.18;3.70;;;;;;;24.43;52.18;97056.91;6206167;28;20243;-93
2023/09/18 12:54:40;;;;;;;7.10;4.07;;;;;;;24.75;53.54;97116.91;6218914;28;20231;-93
2023/09/18 12:57:43;;;;;;;7.55;3.90;;;;;;;23.32;54.31;96900.56;6217174;28;20243;-94
2023/09/18 13:00:49;;;;;;;5.55;4.28;;;;;;;23.54;55.91;96958.28;6207173;28;20236;-93
2023/09/18 13:03:55;;;;;;;5.47;3.65;;;;;;;23.16;56.08;96908.66;6236080;28;20239;-93
2023/09/18 13:07:06;;;;;;;6.70;4.20;;;;;;;25.31;55.87;97236.78;6213086;28;20709;-93
2023/09/18 13:10:10;;;;;;;5.20;3.85;;;;;;;25.54;54.10;97255.31;6251611;28;20318;-93
2023/09/18 13:13:19;;;;;;;6.15;4.65;;;;;;;24.44;55.00;97093.09;6217318;28;20227;-93
2023/09/18 13:16:22;;;;;;;4.20;3.40;;;;;;;22.78;57.43;96870.97;6240350;28;20235;-93
2023/09/18 13:19:25;;;;;;;5.60;4.10;;;;;;;23.67;57.31;97025.13;6220965;28;20309;-93
2023/09/18 13:22:28;;;;;;;5.63;3.88;;;;;;;24.95;57.94;97208.53;6233517;28;20312;-93
2023/09/18 13:25:38;;;;;;;4.15;3.75;;;;;;;22.65;59.22;96877.53;6201667;28;20263;-92
2023/09/18 13:28:42;;;;;;;4.10;3.67;;;;;;;22.61;59.33;96866.56;6222239;28;20239;-93
2023/09/18 13:31:45;;;;;;;5.60;4.28;;;;;;;23.18;58.03;96959.94;6252597;28;20238;-92
2023/09/18 13:34:48;;;;;;;6.50;4.32;;;;;;;24.84;58.99;97193.03;6219468;28;20263;-92
2023/09/18 13:37:50;;;;;;;8.45;4.80;;;;;;;23.12;59.63;96958.56;6235922;28;20266;-94
2023/09/18 13:40:56;;;;;;;7.35;3.70;;;;;;;23.61;58.42;97021.81;6246290;28;20231;-90
2023/09/18 13:43:59;;;;;;;6.55;4.28;;;;;;;24.10;58.72;97133.31;6227932;28;20322;-90
2023/09/18 13:47:01;;;;;;;6.97;4.53;;;;;;;23.39;59.83;97012.22;6227630;28;20238;-91
2023/09/18 13:50:05;;;;;;;7.70;4.88;;;;;;;24.55;60.38;97189.50;6209931;28;20243;-92
2023/09/18 13:53:07;;;;;;;8.52;6.68;;;;;;;23.85;61.35;97099.91;6236677;28;20371;-91
2023/09/18 13:56:09;;;;;;;7.45;4.40;;;;;;;23.44;60.10;97052.75;6224788;28;20227;-90
2023/09/18 13:59:12;;;;;;;6.78;4.22;;;;;;;23.95;61.17;97117.69;6225906;28;20647;-91
2023/09/18 14:02:16;;;;;;;11.55;5.00;;;;;;;24.16;60.24;97120.25;6210742;28;20634;-91
2023/09/18 14:05:19;;;;;;;8.15;4.57;;;;;;;23.90;60.16;97120.66;6243260;28;20238;-92
2023/09/18 14:08:22;;;;;;;7.95;4.97;;;;;;;23.20;59.89;97005.78;6226905;28;20234;-91
2023/09/18 14:11:24;;;;;;;5.82;4.82;;;;;;;24.25;60.32;97178.06;6215080;28;20835;-91
2023/09/18 14:14:27;;;;;;;5.40;4.40;;;;;;;22.27;61.43;96924.78;6243776;28;20230;-91
2023/09/18 14:17:29;;;;;;;6.57;4.75;;;;;;;23.68;61.56;97114.53;6232041;28;20258;-92
2023/09/18 14:20:31;;;;;;;7.40;4.95;;;;;;;22.44;62.63;96952.84;6225859;28;20211;-93